Terminal Aerodrome Forecast
Issued by NWS

Home | Current Version | Previous Version | Text Only | Print | Product List | Glossary Off
Versions: 1 2 3 4 5 6 7 8 9 10 11 12 13 14 15 16 17 18 19 20 21 22 23 24 25 26 27 28 29 30 31 32 33 34 35 36 37
000 FTUS41 KBOX 250251 AAA TAFFMH TAF AMD KFMH 250251Z 2503/2524 30009G18KT P6SM SKC FM250500 30009KT P6SM SCT090 FM251700 28010KT P6SM BKN050 FM252200 28005KT P6SM BKN050=

USA.gov is the U.S. government's official web portal to all federal, state and local government web resources and services.